MSC Luisa — H9XU — position and weather

sailwx.info

Track history (hours):
 
Tides and Currents Weather Stations Pressure Air Temp Water Temp Dewpoint Dewpoint Depression Visibility Wind Speed Wind Dir Waves Ship Positions

MSC Luisa

Last reported at 2016-Aug-24 07:33 UTC. Time now 2016-Aug-24 19:44 UTC.
Position N 01°12' W 046°05'.

Length 289 m; draft 14.2 m.

Type: Ship. MMSI: 355308000.

Date/timePositionNaut miles runAvg speedWind from/ knotsBaromVisibWave heightAir tempDewpointWater temp
2016-Aug-24 07:33N 01°12' W 046°05'  
2016-Aug-17 21:33S 24°20' W 045°31'1717.2
2016-Aug-17 20:33S 24°22' W 045°50'1717.0
2016-Aug-17 19:33S 24°25' W 046°08'1616.0
2016-Aug-17 18:33S 24°14' W 046°21'1313.4
2016-Aug-17 17:33S 24°00' W 046°20'5 4.7
2016-Aug-17 16:32S 23°56' W 046°20'1 1.1
2016-Aug-17 15:33S 23°55' W 046°21'0 0.0
2016-Aug-17 14:33S 23°55' W 046°21'0 0.0
2016-Aug-17 13:33S 23°55' W 046°21'0 0.0
2016-Aug-17 12:33S 23°55' W 046°21'0 0.0
2016-Aug-17 11:33S 23°55' W 046°21'0 0.0
2016-Aug-17 10:33S 23°55' W 046°21'0 0.0
2016-Aug-17 09:33S 23°55' W 046°21'0 0.0
2016-Aug-17 08:33S 23°55' W 046°21'0 0.0
2016-Aug-17 07:31S 23°55' W 046°21'0 0.0
2016-Aug-17 06:33S 23°55' W 046°21'0 0.0
2016-Aug-17 05:33S 23°55' W 046°21'0 0.0
2016-Aug-17 04:30S 23°55' W 046°21'0 0.0
2016-Aug-17 03:32S 23°55' W 046°21'0 0.0
2016-Aug-17 02:33S 23°55' W 046°21'0 0.0
2016-Aug-17 01:33S 23°55' W 046°21'0 0.0
2016-Aug-17 00:33S 23°55' W 046°21'0 0.0
2016-Aug-16 23:33S 23°55' W 046°21'0 0.0
2016-Aug-16 22:33S 23°55' W 046°21'0 0.0
2016-Aug-16 21:33S 23°55' W 046°21'0 0.0
2016-Aug-16 20:33S 23°55' W 046°21'0 0.0
2016-Aug-16 19:33S 23°55' W 046°21'0 0.0
2016-Aug-16 18:33S 23°55' W 046°21'0 0.0
2016-Aug-16 17:33S 23°55' W 046°21'3 3.4
2016-Aug-16 16:33S 23°58' W 046°18'7 7.1
2016-Aug-16 15:33S 24°04' W 046°22'9 8.7
2016-Aug-16 14:33S 24°13' W 046°22'9 9.2
2016-Aug-16 13:33S 24°20' W 046°17'1 0.8
2016-Aug-16 12:29S 24°21' W 046°17'1 0.8
2016-Aug-16 11:28S 24°22' W 046°17'1 0.8
2016-Aug-16 10:31S 24°23' W 046°18'1 0.7
2016-Aug-16 09:25S 24°23' W 046°18'0 0.6
2016-Aug-16 08:30S 24°23' W 046°19'1 0.5
2016-Aug-16 07:30S 24°24' W 046°19'1 0.3
2016-Aug-16 04:28S 24°23' W 046°20'0 0.3
2016-Aug-16 03:28S 24°23' W 046°20'1 1.5
2016-Aug-16 02:33S 24°22' W 046°20'2 2.2
2016-Aug-16 01:29S 24°20' W 046°21'1 0.7
2016-Aug-16 00:28S 24°20' W 046°20'1 0.8
2016-Aug-15 23:31S 24°21' W 046°20'0 0.5
2016-Aug-15 22:33S 24°21' W 046°20'0 0.2
2016-Aug-15 21:33S 24°21' W 046°20'1 0.9
2016-Aug-15 20:23S 24°22' W 046°20'1 0.6
2016-Aug-15 19:26S 24°23' W 046°21'3 3.7
2016-Aug-15 18:32S 24°20' W 046°19'4 3.4
2016-Aug-15 17:29S 24°17' W 046°17'2 1.5
2016-Aug-15 16:29S 24°18' W 046°18'2 1.5
2016-Aug-15 15:28S 24°19' W 046°19'2 2.4
2016-Aug-15 14:33S 24°17' W 046°18'6 5.0
2016-Aug-15 13:24S 24°12' W 046°16'0 0.1
2016-Aug-15 12:30S 24°12' W 046°16'0 0.0
2016-Aug-15 11:32S 24°12' W 046°16'0 0.1
2016-Aug-15 10:29S 24°12' W 046°16'0 0.0
2016-Aug-15 09:13S 24°12' W 046°16'0 0.0
2016-Aug-15 08:22S 24°12' W 046°16'0 0.0
2016-Aug-15 07:16S 24°12' W 046°16'0 0.0
2016-Aug-15 06:27S 24°12' W 046°16'0 0.0
2016-Aug-15 04:29S 24°12' W 046°16'0 0.0
2016-Aug-15 03:32S 24°12' W 046°16'0 0.0
2016-Aug-15 02:28S 24°12' W 046°16'0 0.0
2016-Aug-15 01:31S 24°12' W 046°16'0 0.0
2016-Aug-15 00:28S 24°12' W 046°16'0 0.0
2016-Aug-14 23:30S 24°12' W 046°16'0 0.0
2016-Aug-14 22:33S 24°12' W 046°16'0 0.0
2016-Aug-14 21:29S 24°12' W 046°16'0 0.0
2016-Aug-14 19:31S 24°12' W 046°16'0 0.0
2016-Aug-14 18:28S 24°12' W 046°16'0 0.0
2016-Aug-14 17:28S 24°12' W 046°16'0 0.0
2016-Aug-14 16:33S 24°12' W 046°16'0 0.0
2016-Aug-14 15:33S 24°12' W 046°16'0 0.0
2016-Aug-14 14:32S 24°12' W 046°16'0 0.0
2016-Aug-14 13:26S 24°12' W 046°16'0 0.0
2016-Aug-14 12:22S 24°12' W 046°16'0 0.0
2016-Aug-14 11:10S 24°12' W 046°16'0 0.0
2016-Aug-14 10:31S 24°12' W 046°16'0 0.0
2016-Aug-14 09:30S 24°12' W 046°16'0 0.0
2016-Aug-14 08:24S 24°12' W 046°16'  
Track history (hours):
 
Tides and Currents Weather Stations Pressure Air Temp Water Temp Dewpoint Dewpoint Depression Visibility Wind Speed Wind Dir Waves Ship Positions

MSC Luisa

Last reported at 2016-Aug-24 07:33 UTC. Time now 2016-Aug-24 19:44 UTC.
Position N 01°12' W 046°05'.

Length 289 m; draft 14.2 m.

Type: Ship. MMSI: 355308000.

Date/timePositionNaut miles runAvg speedWind from/ knotsBaromVisibWave heightAir tempDewpointWater temp
2016-Aug-24 07:33N 01°12' W 046°05'  
2016-Aug-17 21:33S 24°20' W 045°31'1717.2
2016-Aug-17 20:33S 24°22' W 045°50'1717.0
2016-Aug-17 19:33S 24°25' W 046°08'1616.0
2016-Aug-17 18:33S 24°14' W 046°21'1313.4
2016-Aug-17 17:33S 24°00' W 046°20'5 4.7
2016-Aug-17 16:32S 23°56' W 046°20'1 1.1
2016-Aug-17 15:33S 23°55' W 046°21'0 0.0
2016-Aug-17 14:33S 23°55' W 046°21'0 0.0
2016-Aug-17 13:33S 23°55' W 046°21'0 0.0
2016-Aug-17 12:33S 23°55' W 046°21'0 0.0
2016-Aug-17 11:33S 23°55' W 046°21'0 0.0
2016-Aug-17 10:33S 23°55' W 046°21'0 0.0
2016-Aug-17 09:33S 23°55' W 046°21'0 0.0
2016-Aug-17 08:33S 23°55' W 046°21'0 0.0
2016-Aug-17 07:31S 23°55' W 046°21'0 0.0
2016-Aug-17 06:33S 23°55' W 046°21'0 0.0
2016-Aug-17 05:33S 23°55' W 046°21'0 0.0
2016-Aug-17 04:30S 23°55' W 046°21'0 0.0
2016-Aug-17 03:32S 23°55' W 046°21'0 0.0
2016-Aug-17 02:33S 23°55' W 046°21'0 0.0
2016-Aug-17 01:33S 23°55' W 046°21'0 0.0
2016-Aug-17 00:33S 23°55' W 046°21'0 0.0
2016-Aug-16 23:33S 23°55' W 046°21'0 0.0
2016-Aug-16 22:33S 23°55' W 046°21'0 0.0
2016-Aug-16 21:33S 23°55' W 046°21'0 0.0
2016-Aug-16 20:33S 23°55' W 046°21'0 0.0
2016-Aug-16 19:33S 23°55' W 046°21'0 0.0
2016-Aug-16 18:33S 23°55' W 046°21'0 0.0
2016-Aug-16 17:33S 23°55' W 046°21'3 3.4
2016-Aug-16 16:33S 23°58' W 046°18'7 7.1
2016-Aug-16 15:33S 24°04' W 046°22'9 8.7
2016-Aug-16 14:33S 24°13' W 046°22'9 9.2
2016-Aug-16 13:33S 24°20' W 046°17'1 0.8
2016-Aug-16 12:29S 24°21' W 046°17'1 0.8
2016-Aug-16 11:28S 24°22' W 046°17'1 0.8
2016-Aug-16 10:31S 24°23' W 046°18'1 0.7
2016-Aug-16 09:25S 24°23' W 046°18'0 0.6
2016-Aug-16 08:30S 24°23' W 046°19'1 0.5
2016-Aug-16 07:30S 24°24' W 046°19'1 0.3
2016-Aug-16 04:28S 24°23' W 046°20'0 0.3
2016-Aug-16 03:28S 24°23' W 046°20'1 1.5
2016-Aug-16 02:33S 24°22' W 046°20'2 2.2
2016-Aug-16 01:29S 24°20' W 046°21'1 0.7
2016-Aug-16 00:28S 24°20' W 046°20'1 0.8
2016-Aug-15 23:31S 24°21' W 046°20'0 0.5
2016-Aug-15 22:33S 24°21' W 046°20'0 0.2
2016-Aug-15 21:33S 24°21' W 046°20'1 0.9
2016-Aug-15 20:23S 24°22' W 046°20'1 0.6
2016-Aug-15 19:26S 24°23' W 046°21'3 3.7
2016-Aug-15 18:32S 24°20' W 046°19'4 3.4
2016-Aug-15 17:29S 24°17' W 046°17'2 1.5
2016-Aug-15 16:29S 24°18' W 046°18'2 1.5
2016-Aug-15 15:28S 24°19' W 046°19'2 2.4
2016-Aug-15 14:33S 24°17' W 046°18'6 5.0
2016-Aug-15 13:24S 24°12' W 046°16'0 0.1
2016-Aug-15 12:30S 24°12' W 046°16'0 0.0
2016-Aug-15 11:32S 24°12' W 046°16'0 0.1
2016-Aug-15 10:29S 24°12' W 046°16'0 0.0
2016-Aug-15 09:13S 24°12' W 046°16'0 0.0
2016-Aug-15 08:22S 24°12' W 046°16'0 0.0
2016-Aug-15 07:16S 24°12' W 046°16'0 0.0
2016-Aug-15 06:27S 24°12' W 046°16'0 0.0
2016-Aug-15 04:29S 24°12' W 046°16'0 0.0
2016-Aug-15 03:32S 24°12' W 046°16'0 0.0
2016-Aug-15 02:28S 24°12' W 046°16'0 0.0
2016-Aug-15 01:31S 24°12' W 046°16'0 0.0
2016-Aug-15 00:28S 24°12' W 046°16'0 0.0
2016-Aug-14 23:30S 24°12' W 046°16'0 0.0
2016-Aug-14 22:33S 24°12' W 046°16'0 0.0
2016-Aug-14 21:29S 24°12' W 046°16'0 0.0
2016-Aug-14 19:31S 24°12' W 046°16'0 0.0
2016-Aug-14 18:28S 24°12' W 046°16'0 0.0
2016-Aug-14 17:28S 24°12' W 046°16'0 0.0
2016-Aug-14 16:33S 24°12' W 046°16'0 0.0
2016-Aug-14 15:33S 24°12' W 046°16'0 0.0
2016-Aug-14 14:32S 24°12' W 046°16'0 0.0
2016-Aug-14 13:26S 24°12' W 046°16'0 0.0
2016-Aug-14 12:22S 24°12' W 046°16'0 0.0
2016-Aug-14 11:10S 24°12' W 046°16'0 0.0
2016-Aug-14 10:31S 24°12' W 046°16'0 0.0
2016-Aug-14 09:30S 24°12' W 046°16'0 0.0
2016-Aug-14 08:24S 24°12' W 046°16'  

Dump ship's entire track history